ADDS METAR Data INFO
IDs: Format: Raw Decoded Include TAF

Data at: 1322 UTC 11 Dec 2017

KMLE 111255Z AUTO 31009KT 10SM CLR 07/M06 A2993 RMK AO2 T00681065
KMLE 111235Z AUTO 30010G15KT 10SM CLR 06/M07 A2993 RMK AO2 T00631070
KMLE 111215Z AUTO 31007KT 10SM CLR 06/M07 A2992 RMK AO2 T00631071
KMLE 111155Z AUTO 31009KT 10SM CLR 06/M07 A2992 RMK AO2 T00611070 10063 21012
KMLE 111135Z AUTO 31004KT 10SM CLR 06/M07 A2992 RMK AO2 T00561069
KMLE 111115Z AUTO 33003KT 10SM CLR 06/M07 A2992 RMK AO2 T00571066
KMLE 111055Z AUTO 31004KT 10SM CLR 05/M06 A2993 RMK AO2 T00511065
KMLE 111035Z AUTO 31004KT 10SM CLR 05/M06 A2994 RMK AO2 T00511065
KMLE 111015Z AUTO 30003KT 10SM CLR 05/M06 A2994 RMK AO2 T00461060
KMLE 110955Z AUTO 29004KT 10SM CLR 05/M06 A2995 RMK AO2 T00451060
KMLE 110935Z AUTO 00000KT 10SM CLR 04/M06 A2995 RMK AO2 T00351060
KMLE 110915Z AUTO 00000KT 10SM CLR 04/M06 A2997 RMK AO2 T00371064
KMLE 110855Z AUTO 00000KT 10SM CLR 04/M06 A2998 RMK AO2 T00401063
KMLE 110835Z AUTO 30004KT 10SM CLR 04/M06 A2998 RMK AO2 T00411061
KMLE 110815Z AUTO 00000KT 10SM CLR 04/M06 A2997 RMK AO2 T00411059
KMLE 110755Z AUTO 28003KT 10SM CLR 01/M04 A2999 RMK AO2 T00121039
KMLE 110735Z AUTO 00000KT 10SM CLR 00/M04 A2998 RMK AO2 T10031044
KMLE 110715Z AUTO 00000KT 10SM CLR M01/M04 A3000 RMK AO2 T10061042
KMLE 110655Z AUTO 00000KT 10SM CLR M01/M05 A3000 RMK AO2 T10121046
KMLE 110635Z AUTO 00000KT 10SM CLR M01/M04 A3001 RMK AO2 T10081044
KMLE 110615Z AUTO 00000KT 10SM CLR M01/M04 A3002 RMK AO2 T10101045
KMLE 110555Z AUTO 00000KT 10SM CLR M01/M04 A3003 RMK AO2 T10071044 10059 21010 401311024
KMLE 110535Z AUTO 00000KT 10SM CLR M01/M04 A3002 RMK AO2 T10081042
KMLE 110515Z AUTO 00000KT 10SM CLR M01/M04 A3004 RMK AO2 T10101041
KMLE 110455Z AUTO 00000KT 10SM CLR M01/M04 A3005 RMK AO2 T10101042
KMLE 110435Z AUTO 00000KT 10SM CLR M01/M04 A3006 RMK AO2 T10071043
KMLE 110415Z AUTO 00000KT 10SM CLR 00/M04 A3007 RMK AO2 T10051041
KMLE 110355Z AUTO 00000KT 10SM CLR 00/M04 A3007 RMK AO2 T00001037
KMLE 110335Z AUTO 00000KT 10SM CLR 00/M04 A3008 RMK AO2 T00001042
KMLE 110315Z AUTO 00000KT 10SM CLR 01/M04 A3009 RMK AO2 T00061041
KMLE 110255Z AUTO 00000KT 10SM CLR 01/M04 A3009 RMK AO2 T00061039
KMLE 110230Z AUTO 00000KT 10SM CLR 01/M04 A3009 RMK AO2 T00071036
KMLE 110215Z AUTO 00000KT 10SM CLR 01/M03 A3010 RMK AO2 T00111035
KMLE 110155Z AUTO 00000KT 10SM CLR 02/M04 A3010 RMK AO2 T00201036
KMLE 110135Z AUTO 00000KT 10SM CLR 02/M03 A3010 RMK AO2 T00221032
KMLE 110115Z AUTO 00000KT 10SM CLR 03/M04 A3010 RMK AO2 T00261036
KMLE 110055Z AUTO 00000KT 10SM CLR 04/M03 A3011 RMK AO2 T00361031
KMLE 110035Z AUTO 00000KT 10SM CLR 04/M03 A3011 RMK AO2 T00381029
KMLE 110015Z AUTO 00000KT 10SM CLR 05/M04 A3011 RMK AO2 T00461036
KMLE 102355Z AUTO 00000KT 10SM CLR 06/M03 A3011 RMK AO2 T00601028 10131 20058
KMLE 102335Z AUTO 00000KT 10SM CLR 07/M03 A3011 RMK AO2 T00701030
KMLE 102315Z AUTO 00000KT 10SM CLR 09/M03 A3011 RMK AO2 T00891035
KMLE 102255Z AUTO 27003KT 10SM CLR 11/M04 A3011 RMK AO2 T01141036
KMLE 102235Z AUTO 30004KT 10SM CLR 12/M03 A3010 RMK AO2 T01201035
KMLE 102215Z AUTO 31005KT 10SM CLR 13/M03 A3011 RMK AO2 T01271035
KMLE 102155Z AUTO 32008KT 10SM CLR 13/M03 A3011 RMK AO2 T01311034
KMLE 102135Z AUTO 32009KT 10SM CLR 13/M03 A3011 RMK AO2 T01311033
KMLE 102115Z AUTO 32006KT 10SM CLR 13/M03 A3010 RMK AO2 T01301032
KMLE 102055Z AUTO 31009KT 10SM CLR 13/M03 A3010 RMK AO2 T01301030
KMLE 102035Z AUTO 32010KT 10SM CLR 13/M03 A3010 RMK AO2 T01271027
KMLE 102015Z AUTO 31011G18KT 10SM CLR 13/M03 A3010 RMK AO2 T01261026
KMLE 101955Z AUTO 30012G17KT 10SM CLR 12/M03 A3010 RMK AO2 T01221026
KMLE 101935Z AUTO 32011G16KT 10SM CLR 12/M03 A3010 RMK AO2 T01201027
KMLE 101915Z AUTO 32011G16KT 10SM CLR 12/M02 A3010 RMK AO2 T01161025
KMLE 101855Z AUTO 31009KT 10SM CLR 11/M02 A3010 RMK AO2 T01111025
KMLE 101835Z AUTO 31014G19KT 10SM CLR 11/M02 A3010 RMK AO2 T01121025
KMLE 101815Z AUTO 32009G16KT 10SM CLR 11/M03 A3011 RMK AO2 T01051027
KMLE 101755Z AUTO 31011G16KT 10SM CLR 10/M03 A3011 RMK AO2 T01011028 10101 20017
KMLE 101735Z AUTO 31010G15KT 10SM CLR 10/M03 A3011 RMK AO2 T00981027
KMLE 101715Z AUTO 31010G18KT 10SM CLR 09/M03 A3011 RMK AO2 T00921029
KMLE 101655Z AUTO 31012G18KT 10SM CLR 09/M03 A3012 RMK AO2 T00861029
KMLE 101635Z AUTO 30010KT 10SM CLR 08/M03 A3012 RMK AO2 T00781031
KMLE 101615Z AUTO 31010G15KT 10SM CLR 07/M03 A3011 RMK AO2 T00721033
KMLE 101555Z AUTO 31009KT 10SM CLR 07/M03 A3011 RMK AO2 T00681033
KMLE 101535Z AUTO 31008KT 10SM CLR 07/M03 A3010 RMK AO2 T00651026
KMLE 101515Z AUTO 31005KT 10SM CLR 06/M02 A3010 RMK AO2 T00561018
KMLE 101455Z AUTO 30005KT 10SM CLR 04/M03 A3010 RMK AO2 T00411027
KMLE 101435Z AUTO 30003KT 10SM CLR 03/M04 A3009 RMK AO2 T00301038
KMLE 101415Z AUTO 32004KT 10SM CLR 02/M04 A3009 RMK AO2 T00231039
KMLE 101355Z AUTO 00000KT 10SM CLR 02/M04 A3008 RMK AO2 T00241042
KMLE 101335Z AUTO 00000KT 10SM CLR 03/M04 A3007 RMK AO2 T00271042
KMLE 101315Z AUTO 32004KT 10SM CLR 03/M04 A3006 RMK AO2 T00291044
KMLE 101255Z AUTO 32003KT 10SM CLR 02/M05 A3005 RMK AO2 T00221047
KMLE 101235Z AUTO 31003KT 10SM CLR 02/M05 A3004 RMK AO2 T00221046
KMLE 101215Z AUTO 31004KT 10SM CLR 02/M05 A3004 RMK AO2 T00221047
KMLE 101155Z AUTO 30003KT 10SM CLR 02/M05 A3003 RMK AO2 T00151050 10023 21024
KMLE 101135Z AUTO 31003KT 10SM CLR 02/M05 A3002 RMK AO2 T00211050
KMLE 101115Z AUTO 31003KT 10SM CLR 02/M05 A3002 RMK AO2 T00211047
KMLE 101055Z AUTO 30005KT 10SM CLR 02/M05 A3002 RMK AO2 T00151049
KMLE 101035Z AUTO 29007KT 10SM CLR 02/M05 A3002 RMK AO2 T00191051
KMLE 101015Z AUTO 30007KT 10SM CLR 01/M05 A3001 RMK AO2 T00101050
KMLE 100955Z AUTO 30004KT 10SM CLR 01/M05 A3001 RMK AO2 T00051051
KMLE 100935Z AUTO 30003KT 10SM CLR 00/M05 A3001 RMK AO2 T10051052
KMLE 100915Z AUTO 29003KT 10SM CLR M02/M06 A3001 RMK AO2 T10181057
KMLE 100855Z AUTO 25003KT 10SM CLR M02/M06 A3001 RMK AO2 T10181063
KMLE 100835Z AUTO 25003KT 10SM CLR 00/M05 A3001 RMK AO2 T10011055
KMLE 100815Z AUTO 25003KT 10SM CLR 01/M05 A3000 RMK AO2 T00061052
KMLE 100755Z AUTO 27003KT 10SM CLR 01/M05 A3001 RMK AO2 T00101052
KMLE 100735Z AUTO 29003KT 10SM CLR 01/M05 A3001 RMK AO2 T00091051
KMLE 100715Z AUTO 29004KT 10SM CLR 01/M05 A3001 RMK AO2 T00131050
KMLE 100655Z AUTO 29005KT 10SM CLR 01/M05 A3001 RMK AO2 T00051049
KMLE 100635Z AUTO 29005KT 10SM CLR 01/M05 A3003 RMK AO2 T00051051
KMLE 100615Z AUTO 32004KT 10SM CLR 01/M05 A3003 RMK AO2 T00091048
KMLE 100555Z AUTO 00000KT 10SM CLR M03/M06 A3003 RMK AO2 T10301062 11010 21035 400311035
KMLE 100535Z AUTO 00000KT 10SM CLR M03/M06 A3003 RMK AO2 T10351064
KMLE 100515Z AUTO 00000KT 10SM CLR M03/M06 A3004 RMK AO2 T10351065
KMLE 100455Z AUTO 00000KT 10SM CLR M03/M06 A3003 RMK AO2 T10311061
KMLE 100435Z AUTO 00000KT 10SM CLR M03/M06 A3006 RMK AO2 T10281062
KMLE 100415Z AUTO 00000KT 10SM CLR M02/M06 A3006 RMK AO2 T10251063
KMLE 100355Z AUTO 00000KT 10SM CLR M03/M06 A3008 RMK AO2 T10281063
KMLE 100335Z AUTO 00000KT 10SM CLR M03/M06 A3009 RMK AO2 T10301063
KMLE 100315Z AUTO 00000KT 10SM CLR M02/M06 A3010 RMK AO2 T10201060
KMLE 100255Z AUTO 12003KT 10SM CLR M02/M06 A3012 RMK AO2 T10231062
KMLE 100235Z AUTO 00000KT 10SM CLR M02/M06 A3012 RMK AO2 T10231058
KMLE 100215Z AUTO 00000KT 10SM CLR M02/M06 A3013 RMK AO2 T10221059
KMLE 100155Z AUTO 00000KT 10SM CLR M03/M06 A3014 RMK AO2 T10271061
KMLE 100135Z AUTO 00000KT 10SM CLR M02/M06 A3014 RMK AO2 T10231059